sensor_id;sensor_type;location;lat;lon;timestamp;P1;durP1;ratioP1;P2;durP2;ratioP2
61407;SDS011;47274;43.054;25.146;2023-07-09T00:01:12;7.03;;;4.55;;
61407;SDS011;47274;43.054;25.146;2023-07-09T00:03:43;7.38;;;4.50;;
61407;SDS011;47274;43.054;25.146;2023-07-09T00:06:09;11.13;;;4.82;;
61407;SDS011;47274;43.054;25.146;2023-07-09T00:08:37;9.00;;;4.60;;
61407;SDS011;47274;43.054;25.146;2023-07-09T00:11:09;10.55;;;4.97;;
61407;SDS011;47274;43.054;25.146;2023-07-09T00:13:35;11.35;;;5.20;;
61407;SDS011;47274;43.054;25.146;2023-07-09T00:16:07;13.52;;;4.80;;
61407;SDS011;47274;43.054;25.146;2023-07-09T00:18:38;9.07;;;4.60;;
61407;SDS011;47274;43.054;25.146;2023-07-09T00:21:03;8.57;;;4.55;;
61407;SDS011;47274;43.054;25.146;2023-07-09T00:23:29;11.52;;;4.82;;
61407;SDS011;47274;43.054;25.146;2023-07-09T00:25:55;8.52;;;4.20;;
61407;SDS011;47274;43.054;25.146;2023-07-09T00:28:21;7.63;;;4.57;;
61407;SDS011;47274;43.054;25.146;2023-07-09T00:30:47;10.68;;;4.60;;
61407;SDS011;47274;43.054;25.146;2023-07-09T00:33:15;8.18;;;4.40;;
61407;SDS011;47274;43.054;25.146;2023-07-09T00:35:44;10.07;;;4.85;;
61407;SDS011;47274;43.054;25.146;2023-07-09T00:38:19;10.43;;;4.30;;
61407;SDS011;47274;43.054;25.146;2023-07-09T00:41:08;9.20;;;4.10;;
61407;SDS011;47274;43.054;25.146;2023-07-09T00:43:47;7.95;;;4.53;;
61407;SDS011;47274;43.054;25.146;2023-07-09T00:47:11;11.60;;;4.30;;
61407;SDS011;47274;43.054;25.146;2023-07-09T00:49:14;9.05;;;4.25;;
61407;SDS011;47274;43.054;25.146;2023-07-09T00:51:46;12.55;;;4.55;;
61407;SDS011;47274;43.054;25.146;2023-07-09T00:54:22;8.25;;;4.28;;
61407;SDS011;47274;43.054;25.146;2023-07-09T00:56:57;8.00;;;4.18;;
61407;SDS011;47274;43.054;25.146;2023-07-09T00:59:26;10.23;;;4.32;;
61407;SDS011;47274;43.054;25.146;2023-07-09T01:01:55;7.32;;;4.00;;
61407;SDS011;47274;43.054;25.146;2023-07-09T01:04:24;7.47;;;4.15;;
61407;SDS011;47274;43.054;25.146;2023-07-09T01:06:52;9.07;;;4.30;;
61407;SDS011;47274;43.054;25.146;2023-07-09T01:09:21;9.27;;;4.38;;
61407;SDS011;47274;43.054;25.146;2023-07-09T01:11:48;7.32;;;3.95;;
61407;SDS011;47274;43.054;25.146;2023-07-09T01:14:17;7.95;;;4.35;;
61407;SDS011;47274;43.054;25.146;2023-07-09T01:16:47;9.50;;;4.27;;
61407;SDS011;47274;43.054;25.146;2023-07-09T01:19:23;9.15;;;4.53;;
61407;SDS011;47274;43.054;25.146;2023-07-09T01:21:57;10.35;;;4.60;;
61407;SDS011;47274;43.054;25.146;2023-07-09T01:27:32;7.38;;;4.00;;
61407;SDS011;47274;43.054;25.146;2023-07-09T01:30:11;11.45;;;4.43;;
61407;SDS011;47274;43.054;25.146;2023-07-09T01:32:44;9.27;;;4.55;;
61407;SDS011;47274;43.054;25.146;2023-07-09T01:35:12;9.02;;;4.47;;
61407;SDS011;47274;43.054;25.146;2023-07-09T01:37:40;9.20;;;3.83;;
61407;SDS011;47274;43.054;25.146;2023-07-09T01:40:07;8.13;;;4.00;;
61407;SDS011;47274;43.054;25.146;2023-07-09T01:42:35;8.70;;;4.03;;
61407;SDS011;47274;43.054;25.146;2023-07-09T01:45:05;7.35;;;3.90;;
61407;SDS011;47274;43.054;25.146;2023-07-09T01:47:41;8.65;;;4.35;;
61407;SDS011;47274;43.054;25.146;2023-07-09T01:52:42;12.77;;;4.40;;
61407;SDS011;47274;43.054;25.146;2023-07-09T01:55:13;10.30;;;4.00;;
61407;SDS011;47274;43.054;25.146;2023-07-09T01:57:42;9.23;;;4.10;;
61407;SDS011;47274;43.054;25.146;2023-07-09T02:00:15;10.45;;;4.68;;
61407;SDS011;47274;43.054;25.146;2023-07-09T02:02:42;7.82;;;4.30;;
61407;SDS011;47274;43.054;25.146;2023-07-09T02:05:12;10.23;;;4.13;;
61407;SDS011;47274;43.054;25.146;2023-07-09T02:19:15;8.43;;;4.40;;
61407;SDS011;47274;43.054;25.146;2023-07-09T02:21:41;8.57;;;4.20;;
61407;SDS011;47274;43.054;25.146;2023-07-09T02:24:10;9.27;;;4.28;;
61407;SDS011;47274;43.054;25.146;2023-07-09T02:29:30;9.20;;;4.30;;
61407;SDS011;47274;43.054;25.146;2023-07-09T02:38:05;9.35;;;4.00;;
61407;SDS011;47274;43.054;25.146;2023-07-09T02:40:41;8.07;;;4.03;;
61407;SDS011;47274;43.054;25.146;2023-07-09T02:43:11;6.47;;;4.07;;
61407;SDS011;47274;43.054;25.146;2023-07-09T02:45:44;8.45;;;4.20;;
61407;SDS011;47274;43.054;25.146;2023-07-09T02:48:13;7.05;;;4.03;;
61407;SDS011;47274;43.054;25.146;2023-07-09T02:50:42;5.88;;;3.50;;
61407;SDS011;47274;43.054;25.146;2023-07-09T02:53:29;6.93;;;3.75;;
61407;SDS011;47274;43.054;25.146;2023-07-09T02:55:58;6.70;;;3.78;;
61407;SDS011;47274;43.054;25.146;2023-07-09T02:58:34;5.72;;;3.50;;
61407;SDS011;47274;43.054;25.146;2023-07-09T03:01:07;8.88;;;3.78;;
61407;SDS011;47274;43.054;25.146;2023-07-09T03:03:35;5.65;;;3.50;;
61407;SDS011;47274;43.054;25.146;2023-07-09T03:06:10;7.45;;;4.18;;
61407;SDS011;47274;43.054;25.146;2023-07-09T03:12:04;10.85;;;3.95;;
61407;SDS011;47274;43.054;25.146;2023-07-09T03:14:36;10.23;;;3.90;;
61407;SDS011;47274;43.054;25.146;2023-07-09T03:17:07;8.30;;;3.88;;
61407;SDS011;47274;43.054;25.146;2023-07-09T03:19:38;7.13;;;3.83;;
61407;SDS011;47274;43.054;25.146;2023-07-09T03:22:06;8.10;;;3.67;;
61407;SDS011;47274;43.054;25.146;2023-07-09T03:24:32;7.43;;;3.67;;
61407;SDS011;47274;43.054;25.146;2023-07-09T03:26:58;7.55;;;3.85;;
61407;SDS011;47274;43.054;25.146;2023-07-09T03:29:27;5.90;;;3.60;;
61407;SDS011;47274;43.054;25.146;2023-07-09T03:31:53;8.95;;;4.00;;
61407;SDS011;47274;43.054;25.146;2023-07-09T03:34:19;6.22;;;3.50;;
61407;SDS011;47274;43.054;25.146;2023-07-09T03:36:46;6.55;;;3.65;;
61407;SDS011;47274;43.054;25.146;2023-07-09T03:39:18;6.32;;;3.75;;
61407;SDS011;47274;43.054;25.146;2023-07-09T03:41:44;6.32;;;3.83;;
61407;SDS011;47274;43.054;25.146;2023-07-09T03:44:13;6.70;;;3.42;;
61407;SDS011;47274;43.054;25.146;2023-07-09T03:46:44;7.70;;;3.97;;
61407;SDS011;47274;43.054;25.146;2023-07-09T03:49:13;10.80;;;4.13;;
61407;SDS011;47274;43.054;25.146;2023-07-09T03:51:39;9.13;;;4.07;;
61407;SDS011;47274;43.054;25.146;2023-07-09T03:54:05;6.43;;;3.80;;
61407;SDS011;47274;43.054;25.146;2023-07-09T03:56:32;9.13;;;3.92;;
61407;SDS011;47274;43.054;25.146;2023-07-09T04:01:35;6.65;;;3.80;;
61407;SDS011;47274;43.054;25.146;2023-07-09T04:04:01;6.68;;;3.70;;
61407;SDS011;47274;43.054;25.146;2023-07-09T04:06:27;9.60;;;3.80;;
61407;SDS011;47274;43.054;25.146;2023-07-09T04:08:55;6.10;;;3.58;;
61407;SDS011;47274;43.054;25.146;2023-07-09T04:11:22;7.30;;;3.90;;
61407;SDS011;47274;43.054;25.146;2023-07-09T04:14:11;6.68;;;3.58;;
61407;SDS011;47274;43.054;25.146;2023-07-09T04:16:36;5.55;;;3.63;;
61407;SDS011;47274;43.054;25.146;2023-07-09T04:19:02;5.72;;;3.50;;
61407;SDS011;47274;43.054;25.146;2023-07-09T04:21:28;9.00;;;3.72;;
61407;SDS011;47274;43.054;25.146;2023-07-09T04:23:54;5.82;;;3.65;;
61407;SDS011;47274;43.054;25.146;2023-07-09T04:26:32;5.75;;;3.60;;
61407;SDS011;47274;43.054;25.146;2023-07-09T04:28:57;6.75;;;3.63;;
61407;SDS011;47274;43.054;25.146;2023-07-09T04:31:23;8.85;;;3.85;;
61407;SDS011;47274;43.054;25.146;2023-07-09T04:33:49;8.70;;;4.18;;
61407;SDS011;47274;43.054;25.146;2023-07-09T04:36:17;6.97;;;3.63;;
61407;SDS011;47274;43.054;25.146;2023-07-09T04:38:43;9.52;;;3.92;;
61407;SDS011;47274;43.054;25.146;2023-07-09T04:41:11;8.60;;;3.90;;
61407;SDS011;47274;43.054;25.146;2023-07-09T04:43:38;8.77;;;4.07;;
61407;SDS011;47274;43.054;25.146;2023-07-09T04:46:03;6.80;;;3.72;;
61407;SDS011;47274;43.054;25.146;2023-07-09T04:48:29;8.55;;;3.97;;
61407;SDS011;47274;43.054;25.146;2023-07-09T04:50:58;11.02;;;4.10;;
61407;SDS011;47274;43.054;25.146;2023-07-09T04:53:25;6.90;;;4.03;;
61407;SDS011;47274;43.054;25.146;2023-07-09T04:55:53;9.98;;;3.95;;
61407;SDS011;47274;43.054;25.146;2023-07-09T05:01:12;7.82;;;4.20;;
61407;SDS011;47274;43.054;25.146;2023-07-09T05:03:38;6.32;;;3.90;;
61407;SDS011;47274;43.054;25.146;2023-07-09T05:06:04;8.00;;;4.07;;
61407;SDS011;47274;43.054;25.146;2023-07-09T05:08:31;7.45;;;3.70;;
61407;SDS011;47274;43.054;25.146;2023-07-09T05:10:57;6.35;;;3.78;;
61407;SDS011;47274;43.054;25.146;2023-07-09T05:13:23;8.77;;;3.70;;
61407;SDS011;47274;43.054;25.146;2023-07-09T05:15:50;7.40;;;3.40;;
61407;SDS011;47274;43.054;25.146;2023-07-09T05:18:17;6.40;;;3.83;;
61407;SDS011;47274;43.054;25.146;2023-07-09T05:20:52;5.20;;;3.50;;
61407;SDS011;47274;43.054;25.146;2023-07-09T05:23:21;5.80;;;3.75;;
61407;SDS011;47274;43.054;25.146;2023-07-09T05:25:55;6.35;;;3.60;;
61407;SDS011;47274;43.054;25.146;2023-07-09T05:28:34;7.88;;;3.88;;
61407;SDS011;47274;43.054;25.146;2023-07-09T05:31:00;6.07;;;3.50;;
61407;SDS011;47274;43.054;25.146;2023-07-09T05:33:49;8.35;;;3.47;;
61407;SDS011;47274;43.054;25.146;2023-07-09T05:36:28;6.18;;;3.35;;
61407;SDS011;47274;43.054;25.146;2023-07-09T05:38:54;5.93;;;3.72;;
61407;SDS011;47274;43.054;25.146;2023-07-09T05:41:21;9.73;;;3.70;;
61407;SDS011;47274;43.054;25.146;2023-07-09T05:43:49;8.85;;;3.47;;
61407;SDS011;47274;43.054;25.146;2023-07-09T05:46:16;7.22;;;3.50;;
61407;SDS011;47274;43.054;25.146;2023-07-09T05:48:42;7.53;;;3.35;;
61407;SDS011;47274;43.054;25.146;2023-07-09T05:51:08;9.20;;;3.97;;
61407;SDS011;47274;43.054;25.146;2023-07-09T05:53:41;8.02;;;3.40;;
61407;SDS011;47274;43.054;25.146;2023-07-09T05:56:07;6.10;;;3.42;;
61407;SDS011;47274;43.054;25.146;2023-07-09T05:58:33;6.20;;;3.42;;
61407;SDS011;47274;43.054;25.146;2023-07-09T06:00:59;6.45;;;3.80;;
61407;SDS011;47274;43.054;25.146;2023-07-09T06:03:25;9.05;;;3.65;;
61407;SDS011;47274;43.054;25.146;2023-07-09T06:05:52;10.90;;;3.72;;
61407;SDS011;47274;43.054;25.146;2023-07-09T06:08:21;15.38;;;6.20;;
61407;SDS011;47274;43.054;25.146;2023-07-09T06:10:51;9.68;;;4.78;;
61407;SDS011;47274;43.054;25.146;2023-07-09T06:13:24;10.50;;;4.50;;
61407;SDS011;47274;43.054;25.146;2023-07-09T06:15:52;14.68;;;5.78;;
61407;SDS011;47274;43.054;25.146;2023-07-09T06:18:18;8.48;;;4.13;;
61407;SDS011;47274;43.054;25.146;2023-07-09T06:20:49;8.80;;;4.50;;
61407;SDS011;47274;43.054;25.146;2023-07-09T06:23:16;9.13;;;4.30;;
61407;SDS011;47274;43.054;25.146;2023-07-09T06:25:42;25.52;;;13.18;;
61407;SDS011;47274;43.054;25.146;2023-07-09T06:28:13;15.60;;;5.20;;
61407;SDS011;47274;43.054;25.146;2023-07-09T06:30:51;10.25;;;5.03;;
61407;SDS011;47274;43.054;25.146;2023-07-09T06:33:17;20.08;;;8.05;;
61407;SDS011;47274;43.054;25.146;2023-07-09T06:35:51;17.17;;;8.30;;
61407;SDS011;47274;43.054;25.146;2023-07-09T06:38:19;21.15;;;9.07;;
61407;SDS011;47274;43.054;25.146;2023-07-09T06:40:46;12.73;;;5.53;;
61407;SDS011;47274;43.054;25.146;2023-07-09T06:43:12;37.92;;;19.33;;
61407;SDS011;47274;43.054;25.146;2023-07-09T06:45:47;30.73;;;13.18;;
61407;SDS011;47274;43.054;25.146;2023-07-09T06:48:27;20.10;;;6.75;;
61407;SDS011;47274;43.054;25.146;2023-07-09T06:51:00;26.35;;;14.43;;
61407;SDS011;47274;43.054;25.146;2023-07-09T06:53:32;14.98;;;6.32;;
61407;SDS011;47274;43.054;25.146;2023-07-09T06:55:58;25.35;;;11.65;;
61407;SDS011;47274;43.054;25.146;2023-07-09T06:58:26;19.27;;;8.23;;
61407;SDS011;47274;43.054;25.146;2023-07-09T07:00:53;18.52;;;7.28;;
61407;SDS011;47274;43.054;25.146;2023-07-09T07:03:21;17.40;;;7.10;;
61407;SDS011;47274;43.054;25.146;2023-07-09T07:05:49;16.25;;;6.30;;
61407;SDS011;47274;43.054;25.146;2023-07-09T07:08:19;9.82;;;4.68;;
61407;SDS011;47274;43.054;25.146;2023-07-09T07:10:48;24.50;;;11.55;;
61407;SDS011;47274;43.054;25.146;2023-07-09T07:13:15;23.95;;;11.40;;
61407;SDS011;47274;43.054;25.146;2023-07-09T07:15:41;21.73;;;9.63;;
61407;SDS011;47274;43.054;25.146;2023-07-09T07:18:07;16.02;;;6.93;;
61407;SDS011;47274;43.054;25.146;2023-07-09T07:20:33;19.67;;;7.40;;
61407;SDS011;47274;43.054;25.146;2023-07-09T07:22:59;25.02;;;9.82;;
61407;SDS011;47274;43.054;25.146;2023-07-09T07:25:25;20.30;;;8.52;;
61407;SDS011;47274;43.054;25.146;2023-07-09T07:27:51;20.23;;;8.20;;
61407;SDS011;47274;43.054;25.146;2023-07-09T07:30:28;14.07;;;5.32;;
61407;SDS011;47274;43.054;25.146;2023-07-09T07:32:54;13.35;;;5.38;;
61407;SDS011;47274;43.054;25.146;2023-07-09T07:35:20;10.50;;;4.38;;
61407;SDS011;47274;43.054;25.146;2023-07-09T07:37:46;12.88;;;4.75;;
61407;SDS011;47274;43.054;25.146;2023-07-09T07:40:12;10.88;;;4.82;;
61407;SDS011;47274;43.054;25.146;2023-07-09T07:42:38;8.65;;;4.22;;
61407;SDS011;47274;43.054;25.146;2023-07-09T07:45:04;9.23;;;4.10;;
61407;SDS011;47274;43.054;25.146;2023-07-09T07:50:14;17.77;;;6.85;;
61407;SDS011;47274;43.054;25.146;2023-07-09T07:52:39;25.25;;;12.20;;
61407;SDS011;47274;43.054;25.146;2023-07-09T07:55:06;24.55;;;11.00;;
61407;SDS011;47274;43.054;25.146;2023-07-09T07:57:33;15.13;;;6.47;;
61407;SDS011;47274;43.054;25.146;2023-07-09T07:59:59;16.80;;;6.80;;
61407;SDS011;47274;43.054;25.146;2023-07-09T08:02:25;13.75;;;5.70;;
61407;SDS011;47274;43.054;25.146;2023-07-09T08:04:51;15.48;;;6.15;;
61407;SDS011;47274;43.054;25.146;2023-07-09T08:07:18;13.95;;;6.03;;
61407;SDS011;47274;43.054;25.146;2023-07-09T08:09:45;25.08;;;9.13;;
61407;SDS011;47274;43.054;25.146;2023-07-09T08:12:13;12.00;;;4.97;;
61407;SDS011;47274;43.054;25.146;2023-07-09T08:14:40;16.25;;;5.78;;
61407;SDS011;47274;43.054;25.146;2023-07-09T08:17:17;10.35;;;4.57;;
61407;SDS011;47274;43.054;25.146;2023-07-09T08:19:44;31.90;;;14.73;;
61407;SDS011;47274;43.054;25.146;2023-07-09T08:22:11;21.67;;;8.35;;
61407;SDS011;47274;43.054;25.146;2023-07-09T08:24:37;13.35;;;5.05;;
61407;SDS011;47274;43.054;25.146;2023-07-09T08:27:05;12.38;;;4.93;;
61407;SDS011;47274;43.054;25.146;2023-07-09T08:29:32;11.35;;;4.55;;
61407;SDS011;47274;43.054;25.146;2023-07-09T08:31:59;10.60;;;4.63;;
61407;SDS011;47274;43.054;25.146;2023-07-09T08:34:29;10.48;;;4.32;;
61407;SDS011;47274;43.054;25.146;2023-07-09T08:36:54;8.43;;;4.13;;
61407;SDS011;47274;43.054;25.146;2023-07-09T08:39:29;12.15;;;4.15;;
61407;SDS011;47274;43.054;25.146;2023-07-09T08:41:59;8.32;;;3.97;;
61407;SDS011;47274;43.054;25.146;2023-07-09T08:50:03;7.10;;;3.85;;
61407;SDS011;47274;43.054;25.146;2023-07-09T08:52:43;7.85;;;4.00;;
61407;SDS011;47274;43.054;25.146;2023-07-09T08:55:16;7.43;;;3.60;;
61407;SDS011;47274;43.054;25.146;2023-07-09T08:57:44;8.90;;;4.32;;
61407;SDS011;47274;43.054;25.146;2023-07-09T09:00:22;9.45;;;3.97;;
61407;SDS011;47274;43.054;25.146;2023-07-09T09:02:56;7.38;;;3.92;;
61407;SDS011;47274;43.054;25.146;2023-07-09T09:05:24;6.15;;;3.53;;
61407;SDS011;47274;43.054;25.146;2023-07-09T09:07:53;6.30;;;3.72;;
61407;SDS011;47274;43.054;25.146;2023-07-09T09:10:47;8.40;;;4.00;;
61407;SDS011;47274;43.054;25.146;2023-07-09T09:13:25;6.68;;;3.50;;
61407;SDS011;47274;43.054;25.146;2023-07-09T09:15:53;6.88;;;3.42;;
61407;SDS011;47274;43.054;25.146;2023-07-09T09:18:27;7.97;;;3.95;;
61407;SDS011;47274;43.054;25.146;2023-07-09T09:21:07;4.45;;;3.40;;
61407;SDS011;47274;43.054;25.146;2023-07-09T09:23:45;6.55;;;3.63;;
61407;SDS011;47274;43.054;25.146;2023-07-09T09:26:24;7.90;;;3.88;;
61407;SDS011;47274;43.054;25.146;2023-07-09T09:28:56;9.13;;;4.65;;
61407;SDS011;47274;43.054;25.146;2023-07-09T09:31:23;6.25;;;3.65;;
61407;SDS011;47274;43.054;25.146;2023-07-09T09:33:51;7.03;;;3.45;;
61407;SDS011;47274;43.054;25.146;2023-07-09T09:36:24;9.98;;;5.85;;
61407;SDS011;47274;43.054;25.146;2023-07-09T09:38:52;7.53;;;3.63;;
61407;SDS011;47274;43.054;25.146;2023-07-09T09:41:22;9.85;;;4.07;;
61407;SDS011;47274;43.054;25.146;2023-07-09T09:43:51;7.38;;;3.75;;
61407;SDS011;47274;43.054;25.146;2023-07-09T09:46:22;6.57;;;3.67;;
61407;SDS011;47274;43.054;25.146;2023-07-09T09:48:58;10.93;;;4.47;;
61407;SDS011;47274;43.054;25.146;2023-07-09T09:51:26;8.55;;;4.15;;
61407;SDS011;47274;43.054;25.146;2023-07-09T09:54:00;9.63;;;4.60;;
61407;SDS011;47274;43.054;25.146;2023-07-09T09:56:28;6.88;;;4.00;;
61407;SDS011;47274;43.054;25.146;2023-07-09T09:58:58;6.82;;;3.72;;
61407;SDS011;47274;43.054;25.146;2023-07-09T10:01:26;7.72;;;4.00;;
61407;SDS011;47274;43.054;25.146;2023-07-09T10:03:56;5.97;;;3.50;;
61407;SDS011;47274;43.054;25.146;2023-07-09T10:06:34;9.77;;;4.80;;
61407;SDS011;47274;43.054;25.146;2023-07-09T10:22:57;6.22;;;3.60;;
61407;SDS011;47274;43.054;25.146;2023-07-09T10:33:45;7.60;;;3.80;;
61407;SDS011;47274;43.054;25.146;2023-07-09T10:36:28;6.35;;;3.72;;
61407;SDS011;47274;43.054;25.146;2023-07-09T10:39:38;7.30;;;3.80;;
61407;SDS011;47274;43.054;25.146;2023-07-09T10:42:12;6.75;;;3.70;;
61407;SDS011;47274;43.054;25.146;2023-07-09T10:44:46;6.95;;;3.95;;
61407;SDS011;47274;43.054;25.146;2023-07-09T10:47:25;6.07;;;3.65;;
61407;SDS011;47274;43.054;25.146;2023-07-09T10:50:01;5.93;;;3.67;;
61407;SDS011;47274;43.054;25.146;2023-07-09T10:52:31;5.57;;;3.50;;
61407;SDS011;47274;43.054;25.146;2023-07-09T10:57:50;6.45;;;3.42;;
61407;SDS011;47274;43.054;25.146;2023-07-09T11:00:23;5.93;;;3.30;;
61407;SDS011;47274;43.054;25.146;2023-07-09T11:03:02;6.47;;;3.45;;
61407;SDS011;47274;43.054;25.146;2023-07-09T11:05:34;10.02;;;3.72;;
61407;SDS011;47274;43.054;25.146;2023-07-09T11:08:08;6.40;;;3.63;;
61407;SDS011;47274;43.054;25.146;2023-07-09T11:10:44;5.40;;;3.40;;
61407;SDS011;47274;43.054;25.146;2023-07-09T11:13:19;7.03;;;3.30;;
61407;SDS011;47274;43.054;25.146;2023-07-09T11:15:51;6.38;;;3.50;;
61407;SDS011;47274;43.054;25.146;2023-07-09T11:18:25;5.85;;;3.35;;
61407;SDS011;47274;43.054;25.146;2023-07-09T11:21:04;8.73;;;3.73;;
61407;SDS011;47274;43.054;25.146;2023-07-09T11:23:52;7.25;;;3.53;;
61407;SDS011;47274;43.054;25.146;2023-07-09T11:26:24;5.13;;;3.47;;
61407;SDS011;47274;43.054;25.146;2023-07-09T11:28:54;11.50;;;3.55;;
61407;SDS011;47274;43.054;25.146;2023-07-09T11:39:23;6.32;;;3.70;;
61407;SDS011;47274;43.054;25.146;2023-07-09T11:42:01;10.80;;;4.73;;
61407;SDS011;47274;43.054;25.146;2023-07-09T11:44:28;7.32;;;4.00;;
61407;SDS011;47274;43.054;25.146;2023-07-09T11:50:26;6.00;;;3.75;;
61407;SDS011;47274;43.054;25.146;2023-07-09T11:52:57;6.53;;;3.80;;
61407;SDS011;47274;43.054;25.146;2023-07-09T11:55:26;8.40;;;3.95;;
61407;SDS011;47274;43.054;25.146;2023-07-09T11:58:12;5.30;;;3.55;;
61407;SDS011;47274;43.054;25.146;2023-07-09T12:00:41;10.43;;;4.22;;
61407;SDS011;47274;43.054;25.146;2023-07-09T12:03:10;9.25;;;4.47;;
61407;SDS011;47274;43.054;25.146;2023-07-09T12:05:50;6.60;;;3.53;;
61407;SDS011;47274;43.054;25.146;2023-07-09T12:08:38;5.72;;;3.50;;
61407;SDS011;47274;43.054;25.146;2023-07-09T12:11:16;8.13;;;3.70;;
61407;SDS011;47274;43.054;25.146;2023-07-09T12:13:53;10.98;;;3.75;;
61407;SDS011;47274;43.054;25.146;2023-07-09T12:16:28;5.93;;;3.75;;
61407;SDS011;47274;43.054;25.146;2023-07-09T12:18:55;8.10;;;3.95;;
61407;SDS011;47274;43.054;25.146;2023-07-09T12:21:22;7.55;;;3.88;;
61407;SDS011;47274;43.054;25.146;2023-07-09T12:23:49;19.05;;;7.07;;
61407;SDS011;47274;43.054;25.146;2023-07-09T12:26:17;10.38;;;4.45;;
61407;SDS011;47274;43.054;25.146;2023-07-09T12:28:54;7.35;;;4.15;;
61407;SDS011;47274;43.054;25.146;2023-07-09T12:31:26;11.13;;;4.95;;
61407;SDS011;47274;43.054;25.146;2023-07-09T12:33:55;12.75;;;4.63;;
61407;SDS011;47274;43.054;25.146;2023-07-09T12:36:24;10.38;;;4.82;;
61407;SDS011;47274;43.054;25.146;2023-07-09T12:38:52;8.60;;;3.95;;
61407;SDS011;47274;43.054;25.146;2023-07-09T12:41:39;6.63;;;3.90;;
61407;SDS011;47274;43.054;25.146;2023-07-09T12:44:20;14.02;;;4.20;;
61407;SDS011;47274;43.054;25.146;2023-07-09T12:46:52;14.43;;;5.85;;
61407;SDS011;47274;43.054;25.146;2023-07-09T12:49:20;7.32;;;4.10;;
61407;SDS011;47274;43.054;25.146;2023-07-09T12:51:54;7.88;;;3.88;;
61407;SDS011;47274;43.054;25.146;2023-07-09T12:54:27;10.38;;;4.28;;
61407;SDS011;47274;43.054;25.146;2023-07-09T12:56:54;6.68;;;3.78;;
61407;SDS011;47274;43.054;25.146;2023-07-09T12:59:22;10.40;;;4.50;;
61407;SDS011;47274;43.054;25.146;2023-07-09T13:01:59;8.20;;;3.58;;
61407;SDS011;47274;43.054;25.146;2023-07-09T13:04:31;5.93;;;3.80;;
61407;SDS011;47274;43.054;25.146;2023-07-09T13:06:58;7.82;;;3.95;;
61407;SDS011;47274;43.054;25.146;2023-07-09T13:09:25;8.10;;;4.22;;
61407;SDS011;47274;43.054;25.146;2023-07-09T13:11:52;7.78;;;4.07;;
61407;SDS011;47274;43.054;25.146;2023-07-09T13:14:24;7.07;;;4.00;;
61407;SDS011;47274;43.054;25.146;2023-07-09T13:17:01;6.80;;;3.85;;
61407;SDS011;47274;43.054;25.146;2023-07-09T13:19:31;7.20;;;3.67;;
61407;SDS011;47274;43.054;25.146;2023-07-09T13:21:57;7.40;;;4.05;;
61407;SDS011;47274;43.054;25.146;2023-07-09T13:24:23;7.13;;;4.13;;
61407;SDS011;47274;43.054;25.146;2023-07-09T13:26:51;8.25;;;3.83;;
61407;SDS011;47274;43.054;25.146;2023-07-09T13:29:18;7.60;;;3.60;;
61407;SDS011;47274;43.054;25.146;2023-07-09T13:31:45;6.97;;;4.07;;
61407;SDS011;47274;43.054;25.146;2023-07-09T13:34:19;6.75;;;3.78;;
61407;SDS011;47274;43.054;25.146;2023-07-09T13:36:47;8.88;;;4.00;;
61407;SDS011;47274;43.054;25.146;2023-07-09T13:39:13;10.95;;;4.32;;
61407;SDS011;47274;43.054;25.146;2023-07-09T13:41:44;8.02;;;3.90;;
61407;SDS011;47274;43.054;25.146;2023-07-09T13:44:18;9.38;;;4.55;;
61407;SDS011;47274;43.054;25.146;2023-07-09T13:46:53;7.13;;;3.80;;
61407;SDS011;47274;43.054;25.146;2023-07-09T13:49:21;8.55;;;4.15;;
61407;SDS011;47274;43.054;25.146;2023-07-09T13:51:50;8.73;;;4.40;;
61407;SDS011;47274;43.054;25.146;2023-07-09T13:56:46;9.52;;;4.32;;
61407;SDS011;47274;43.054;25.146;2023-07-09T13:59:19;6.82;;;3.95;;
61407;SDS011;47274;43.054;25.146;2023-07-09T14:01:52;11.85;;;3.95;;
61407;SDS011;47274;43.054;25.146;2023-07-09T14:04:22;6.90;;;3.85;;
61407;SDS011;47274;43.054;25.146;2023-07-09T14:06:49;7.05;;;3.80;;
61407;SDS011;47274;43.054;25.146;2023-07-09T14:09:15;6.35;;;3.83;;
61407;SDS011;47274;43.054;25.146;2023-07-09T14:11:48;12.50;;;4.00;;
61407;SDS011;47274;43.054;25.146;2023-07-09T14:14:16;6.82;;;3.88;;
61407;SDS011;47274;43.054;25.146;2023-07-09T14:16:43;7.50;;;3.97;;
61407;SDS011;47274;43.054;25.146;2023-07-09T14:19:22;8.63;;;4.07;;
61407;SDS011;47274;43.054;25.146;2023-07-09T14:21:49;16.35;;;5.18;;
61407;SDS011;47274;43.054;25.146;2023-07-09T14:26:45;13.23;;;4.70;;
61407;SDS011;47274;43.054;25.146;2023-07-09T14:29:15;13.45;;;4.75;;
61407;SDS011;47274;43.054;25.146;2023-07-09T14:31:41;10.90;;;4.63;;
61407;SDS011;47274;43.054;25.146;2023-07-09T14:34:18;13.70;;;5.13;;
61407;SDS011;47274;43.054;25.146;2023-07-09T14:36:50;12.63;;;5.25;;
61407;SDS011;47274;43.054;25.146;2023-07-09T14:39:17;11.63;;;4.60;;
61407;SDS011;47274;43.054;25.146;2023-07-09T14:41:43;13.75;;;4.70;;
61407;SDS011;47274;43.054;25.146;2023-07-09T14:44:20;9.25;;;4.55;;
61407;SDS011;47274;43.054;25.146;2023-07-09T14:46:51;8.57;;;4.05;;
61407;SDS011;47274;43.054;25.146;2023-07-09T14:49:19;11.82;;;5.57;;
61407;SDS011;47274;43.054;25.146;2023-07-09T14:51:45;13.52;;;5.80;;
61407;SDS011;47274;43.054;25.146;2023-07-09T14:54:19;9.00;;;5.32;;
61407;SDS011;47274;43.054;25.146;2023-07-09T14:56:51;13.07;;;5.65;;
61407;SDS011;47274;43.054;25.146;2023-07-09T14:59:18;12.90;;;5.88;;
61407;SDS011;47274;43.054;25.146;2023-07-09T15:01:44;12.07;;;4.97;;
61407;SDS011;47274;43.054;25.146;2023-07-09T15:06:48;12.20;;;5.82;;
61407;SDS011;47274;43.054;25.146;2023-07-09T15:09:16;13.23;;;5.65;;
61407;SDS011;47274;43.054;25.146;2023-07-09T15:11:46;14.43;;;5.55;;
61407;SDS011;47274;43.054;25.146;2023-07-09T15:14:17;10.68;;;5.35;;
61407;SDS011;47274;43.054;25.146;2023-07-09T15:16:43;11.05;;;5.75;;
61407;SDS011;47274;43.054;25.146;2023-07-09T15:19:14;8.93;;;4.80;;
61407;SDS011;47274;43.054;25.146;2023-07-09T15:21:41;7.75;;;4.63;;
61407;SDS011;47274;43.054;25.146;2023-07-09T15:24:30;9.70;;;5.05;;
61407;SDS011;47274;43.054;25.146;2023-07-09T15:26:58;11.90;;;5.57;;
61407;SDS011;47274;43.054;25.146;2023-07-09T15:29:25;9.93;;;5.15;;
61407;SDS011;47274;43.054;25.146;2023-07-09T15:31:54;9.52;;;5.10;;
61407;SDS011;47274;43.054;25.146;2023-07-09T15:34:20;10.63;;;5.80;;
61407;SDS011;47274;43.054;25.146;2023-07-09T15:36:47;12.10;;;5.65;;
61407;SDS011;47274;43.054;25.146;2023-07-09T15:39:14;13.48;;;5.68;;
61407;SDS011;47274;43.054;25.146;2023-07-09T15:41:41;9.65;;;5.35;;
61407;SDS011;47274;43.054;25.146;2023-07-09T15:44:10;11.20;;;5.60;;
61407;SDS011;47274;43.054;25.146;2023-07-09T15:46:37;9.43;;;5.47;;
61407;SDS011;47274;43.054;25.146;2023-07-09T15:49:05;10.63;;;5.32;;
61407;SDS011;47274;43.054;25.146;2023-07-09T15:51:32;8.70;;;4.95;;
61407;SDS011;47274;43.054;25.146;2023-07-09T15:53:58;11.25;;;5.45;;
61407;SDS011;47274;43.054;25.146;2023-07-09T15:56:25;9.93;;;5.10;;
61407;SDS011;47274;43.054;25.146;2023-07-09T15:58:54;10.73;;;5.40;;
61407;SDS011;47274;43.054;25.146;2023-07-09T16:01:21;11.02;;;5.80;;
61407;SDS011;47274;43.054;25.146;2023-07-09T16:03:51;9.65;;;5.13;;
61407;SDS011;47274;43.054;25.146;2023-07-09T16:06:22;7.78;;;5.03;;
61407;SDS011;47274;43.054;25.146;2023-07-09T16:08:53;10.37;;;5.00;;
61407;SDS011;47274;43.054;25.146;2023-07-09T16:11:21;10.13;;;4.88;;
61407;SDS011;47274;43.054;25.146;2023-07-09T16:13:49;9.70;;;4.70;;